sensor_id;sensor_type;location;lat;lon;timestamp;P1;durP1;ratioP1;P2;durP2;ratioP2
12145;SDS011;6136;47.032;15.398;2023-04-24T00:00:37;6.70;;;5.03;;
12145;SDS011;6136;47.032;15.398;2023-04-24T00:03:07;6.13;;;4.90;;
12145;SDS011;6136;47.032;15.398;2023-04-24T00:05:37;6.53;;;4.97;;
12145;SDS011;6136;47.032;15.398;2023-04-24T00:08:06;6.20;;;5.20;;
12145;SDS011;6136;47.032;15.398;2023-04-24T00:10:35;5.10;;;4.60;;
12145;SDS011;6136;47.032;15.398;2023-04-24T00:13:04;5.07;;;4.23;;
12145;SDS011;6136;47.032;15.398;2023-04-24T00:15:32;7.17;;;4.50;;
12145;SDS011;6136;47.032;15.398;2023-04-24T00:18:00;7.53;;;5.07;;
12145;SDS011;6136;47.032;15.398;2023-04-24T00:20:29;6.13;;;4.87;;
12145;SDS011;6136;47.032;15.398;2023-04-24T00:23:00;7.93;;;5.30;;
12145;SDS011;6136;47.032;15.398;2023-04-24T00:25:28;5.60;;;4.73;;
12145;SDS011;6136;47.032;15.398;2023-04-24T00:27:57;8.00;;;5.30;;
12145;SDS011;6136;47.032;15.398;2023-04-24T00:30:25;6.77;;;5.37;;
12145;SDS011;6136;47.032;15.398;2023-04-24T00:32:53;7.30;;;4.67;;
12145;SDS011;6136;47.032;15.398;2023-04-24T00:35:22;6.87;;;5.00;;
12145;SDS011;6136;47.032;15.398;2023-04-24T00:37:51;7.60;;;5.33;;
12145;SDS011;6136;47.032;15.398;2023-04-24T00:40:21;6.47;;;5.10;;
12145;SDS011;6136;47.032;15.398;2023-04-24T00:42:49;5.87;;;4.70;;
12145;SDS011;6136;47.032;15.398;2023-04-24T00:45:17;5.90;;;5.17;;
12145;SDS011;6136;47.032;15.398;2023-04-24T00:47:46;5.23;;;4.37;;
12145;SDS011;6136;47.032;15.398;2023-04-24T00:50:15;7.93;;;5.10;;
12145;SDS011;6136;47.032;15.398;2023-04-24T00:52:44;7.10;;;4.97;;
12145;SDS011;6136;47.032;15.398;2023-04-24T00:55:13;8.17;;;5.67;;
12145;SDS011;6136;47.032;15.398;2023-04-24T00:57:44;5.40;;;4.90;;
12145;SDS011;6136;47.032;15.398;2023-04-24T01:00:13;7.20;;;4.87;;
12145;SDS011;6136;47.032;15.398;2023-04-24T01:02:43;4.97;;;4.47;;
12145;SDS011;6136;47.032;15.398;2023-04-24T01:05:12;5.07;;;4.13;;
12145;SDS011;6136;47.032;15.398;2023-04-24T01:07:43;6.27;;;4.57;;
12145;SDS011;6136;47.032;15.398;2023-04-24T01:10:14;5.80;;;4.73;;
12145;SDS011;6136;47.032;15.398;2023-04-24T01:12:46;4.67;;;4.27;;
12145;SDS011;6136;47.032;15.398;2023-04-24T01:15:15;7.43;;;4.97;;
12145;SDS011;6136;47.032;15.398;2023-04-24T01:17:43;6.13;;;4.87;;
12145;SDS011;6136;47.032;15.398;2023-04-24T01:20:13;5.80;;;5.20;;
12145;SDS011;6136;47.032;15.398;2023-04-24T01:22:43;6.33;;;5.03;;
12145;SDS011;6136;47.032;15.398;2023-04-24T01:25:12;5.87;;;4.83;;
12145;SDS011;6136;47.032;15.398;2023-04-24T01:27:40;6.83;;;5.10;;
12145;SDS011;6136;47.032;15.398;2023-04-24T01:30:11;5.37;;;4.73;;
12145;SDS011;6136;47.032;15.398;2023-04-24T01:32:40;8.40;;;5.00;;
12145;SDS011;6136;47.032;15.398;2023-04-24T01:35:11;6.20;;;5.40;;
12145;SDS011;6136;47.032;15.398;2023-04-24T01:37:40;6.60;;;5.67;;
12145;SDS011;6136;47.032;15.398;2023-04-24T01:40:10;8.40;;;5.80;;
12145;SDS011;6136;47.032;15.398;2023-04-24T01:42:38;7.00;;;5.50;;
12145;SDS011;6136;47.032;15.398;2023-04-24T01:45:10;7.70;;;5.83;;
12145;SDS011;6136;47.032;15.398;2023-04-24T01:47:39;7.37;;;5.50;;
12145;SDS011;6136;47.032;15.398;2023-04-24T01:50:08;7.63;;;6.23;;
12145;SDS011;6136;47.032;15.398;2023-04-24T01:52:38;7.27;;;6.40;;
12145;SDS011;6136;47.032;15.398;2023-04-24T01:55:10;7.30;;;5.67;;
12145;SDS011;6136;47.032;15.398;2023-04-24T01:57:38;7.60;;;6.47;;
12145;SDS011;6136;47.032;15.398;2023-04-24T02:00:08;8.20;;;6.27;;
12145;SDS011;6136;47.032;15.398;2023-04-24T02:02:39;6.83;;;5.97;;
12145;SDS011;6136;47.032;15.398;2023-04-24T02:05:10;7.17;;;5.73;;
12145;SDS011;6136;47.032;15.398;2023-04-24T02:07:38;7.00;;;5.30;;
12145;SDS011;6136;47.032;15.398;2023-04-24T02:10:10;6.87;;;5.47;;
12145;SDS011;6136;47.032;15.398;2023-04-24T02:12:41;8.90;;;6.43;;
12145;SDS011;6136;47.032;15.398;2023-04-24T02:15:10;6.87;;;5.10;;
12145;SDS011;6136;47.032;15.398;2023-04-24T02:17:38;7.17;;;5.53;;
12145;SDS011;6136;47.032;15.398;2023-04-24T02:20:07;7.17;;;6.13;;
12145;SDS011;6136;47.032;15.398;2023-04-24T02:22:37;6.73;;;5.47;;
12145;SDS011;6136;47.032;15.398;2023-04-24T02:25:06;5.73;;;5.13;;
12145;SDS011;6136;47.032;15.398;2023-04-24T02:27:36;9.60;;;5.93;;
12145;SDS011;6136;47.032;15.398;2023-04-24T02:30:05;7.17;;;5.17;;
12145;SDS011;6136;47.032;15.398;2023-04-24T02:32:34;7.23;;;5.30;;
12145;SDS011;6136;47.032;15.398;2023-04-24T02:35:03;6.77;;;5.40;;
12145;SDS011;6136;47.032;15.398;2023-04-24T02:37:32;7.83;;;5.90;;
12145;SDS011;6136;47.032;15.398;2023-04-24T02:40:00;7.50;;;6.23;;
12145;SDS011;6136;47.032;15.398;2023-04-24T02:42:28;8.67;;;6.53;;
12145;SDS011;6136;47.032;15.398;2023-04-24T02:44:58;12.60;;;6.73;;
12145;SDS011;6136;47.032;15.398;2023-04-24T02:47:26;8.93;;;6.93;;
12145;SDS011;6136;47.032;15.398;2023-04-24T02:49:54;8.47;;;6.63;;
12145;SDS011;6136;47.032;15.398;2023-04-24T02:52:23;7.80;;;6.63;;
12145;SDS011;6136;47.032;15.398;2023-04-24T02:54:51;7.70;;;5.97;;
12145;SDS011;6136;47.032;15.398;2023-04-24T02:57:20;6.83;;;5.93;;
12145;SDS011;6136;47.032;15.398;2023-04-24T02:59:48;10.73;;;5.97;;
12145;SDS011;6136;47.032;15.398;2023-04-24T03:02:18;6.87;;;5.93;;
12145;SDS011;6136;47.032;15.398;2023-04-24T03:04:47;8.73;;;6.93;;
12145;SDS011;6136;47.032;15.398;2023-04-24T03:07:15;7.23;;;6.17;;
12145;SDS011;6136;47.032;15.398;2023-04-24T03:09:47;8.40;;;5.60;;
12145;SDS011;6136;47.032;15.398;2023-04-24T03:12:15;7.13;;;5.60;;
12145;SDS011;6136;47.032;15.398;2023-04-24T03:14:44;6.20;;;5.60;;
12145;SDS011;6136;47.032;15.398;2023-04-24T03:17:12;6.83;;;5.20;;
12145;SDS011;6136;47.032;15.398;2023-04-24T03:19:42;7.23;;;5.63;;
12145;SDS011;6136;47.032;15.398;2023-04-24T03:22:12;8.03;;;6.43;;
12145;SDS011;6136;47.032;15.398;2023-04-24T03:24:40;7.33;;;5.90;;
12145;SDS011;6136;47.032;15.398;2023-04-24T03:27:09;7.43;;;5.53;;
12145;SDS011;6136;47.032;15.398;2023-04-24T03:30:09;8.43;;;6.40;;
12145;SDS011;6136;47.032;15.398;2023-04-24T03:32:43;7.17;;;5.43;;
12145;SDS011;6136;47.032;15.398;2023-04-24T03:35:17;6.67;;;5.53;;
12145;SDS011;6136;47.032;15.398;2023-04-24T03:37:46;7.83;;;5.90;;
12145;SDS011;6136;47.032;15.398;2023-04-24T03:40:37;12.00;;;5.90;;
12145;SDS011;6136;47.032;15.398;2023-04-24T03:43:16;10.50;;;6.20;;
12145;SDS011;6136;47.032;15.398;2023-04-24T03:45:45;9.77;;;6.70;;
12145;SDS011;6136;47.032;15.398;2023-04-24T03:48:14;8.07;;;6.67;;
12145;SDS011;6136;47.032;15.398;2023-04-24T03:50:44;10.97;;;5.40;;
12145;SDS011;6136;47.032;15.398;2023-04-24T03:53:12;6.60;;;5.70;;
12145;SDS011;6136;47.032;15.398;2023-04-24T03:55:41;7.37;;;6.23;;
12145;SDS011;6136;47.032;15.398;2023-04-24T03:58:09;8.27;;;6.87;;
12145;SDS011;6136;47.032;15.398;2023-04-24T04:00:38;8.43;;;6.50;;
12145;SDS011;6136;47.032;15.398;2023-04-24T04:03:32;8.43;;;5.87;;
12145;SDS011;6136;47.032;15.398;2023-04-24T04:06:03;10.53;;;7.23;;
12145;SDS011;6136;47.032;15.398;2023-04-24T04:08:32;13.10;;;5.87;;
12145;SDS011;6136;47.032;15.398;2023-04-24T04:11:00;8.53;;;6.37;;
12145;SDS011;6136;47.032;15.398;2023-04-24T04:13:31;12.27;;;5.97;;
12145;SDS011;6136;47.032;15.398;2023-04-24T04:15:59;9.03;;;6.20;;
12145;SDS011;6136;47.032;15.398;2023-04-24T04:18:27;8.43;;;6.17;;
12145;SDS011;6136;47.032;15.398;2023-04-24T04:20:56;12.60;;;6.33;;
12145;SDS011;6136;47.032;15.398;2023-04-24T04:23:25;9.47;;;7.30;;
12145;SDS011;6136;47.032;15.398;2023-04-24T04:26:06;9.73;;;7.50;;
12145;SDS011;6136;47.032;15.398;2023-04-24T04:28:48;10.03;;;6.73;;
12145;SDS011;6136;47.032;15.398;2023-04-24T04:31:16;11.20;;;7.63;;
12145;SDS011;6136;47.032;15.398;2023-04-24T04:33:45;13.67;;;7.63;;
12145;SDS011;6136;47.032;15.398;2023-04-24T04:36:13;10.70;;;7.27;;
12145;SDS011;6136;47.032;15.398;2023-04-24T04:38:49;11.03;;;7.13;;
12145;SDS011;6136;47.032;15.398;2023-04-24T04:41:38;8.23;;;6.90;;
12145;SDS011;6136;47.032;15.398;2023-04-24T04:44:08;9.83;;;6.90;;
12145;SDS011;6136;47.032;15.398;2023-04-24T04:46:37;8.40;;;6.70;;
12145;SDS011;6136;47.032;15.398;2023-04-24T04:49:13;9.27;;;6.83;;
12145;SDS011;6136;47.032;15.398;2023-04-24T04:51:44;9.87;;;7.50;;
12145;SDS011;6136;47.032;15.398;2023-04-24T04:54:14;8.13;;;6.67;;
12145;SDS011;6136;47.032;15.398;2023-04-24T04:56:42;10.77;;;7.00;;
12145;SDS011;6136;47.032;15.398;2023-04-24T04:59:11;17.17;;;7.67;;
12145;SDS011;6136;47.032;15.398;2023-04-24T05:01:40;10.20;;;7.67;;
12145;SDS011;6136;47.032;15.398;2023-04-24T05:04:10;12.13;;;8.00;;
12145;SDS011;6136;47.032;15.398;2023-04-24T05:06:40;11.57;;;8.13;;
12145;SDS011;6136;47.032;15.398;2023-04-24T05:09:08;9.43;;;7.20;;
12145;SDS011;6136;47.032;15.398;2023-04-24T05:11:49;10.87;;;7.47;;
12145;SDS011;6136;47.032;15.398;2023-04-24T05:14:17;8.93;;;7.00;;
12145;SDS011;6136;47.032;15.398;2023-04-24T05:16:46;9.67;;;7.20;;
12145;SDS011;6136;47.032;15.398;2023-04-24T05:19:17;12.80;;;6.80;;
12145;SDS011;6136;47.032;15.398;2023-04-24T05:21:45;10.27;;;6.83;;
12145;SDS011;6136;47.032;15.398;2023-04-24T05:24:14;12.03;;;7.43;;
12145;SDS011;6136;47.032;15.398;2023-04-24T05:26:50;9.90;;;6.90;;
12145;SDS011;6136;47.032;15.398;2023-04-24T05:29:23;9.30;;;7.07;;
12145;SDS011;6136;47.032;15.398;2023-04-24T05:31:53;9.47;;;7.67;;
12145;SDS011;6136;47.032;15.398;2023-04-24T05:34:22;11.23;;;7.60;;
12145;SDS011;6136;47.032;15.398;2023-04-24T05:36:54;8.13;;;7.23;;
12145;SDS011;6136;47.032;15.398;2023-04-24T05:39:22;9.07;;;6.40;;
12145;SDS011;6136;47.032;15.398;2023-04-24T05:41:54;14.57;;;6.53;;
12145;SDS011;6136;47.032;15.398;2023-04-24T05:44:24;10.73;;;6.70;;
12145;SDS011;6136;47.032;15.398;2023-04-24T05:46:52;12.47;;;7.50;;
12145;SDS011;6136;47.032;15.398;2023-04-24T05:49:22;10.13;;;6.50;;
12145;SDS011;6136;47.032;15.398;2023-04-24T05:51:51;11.87;;;6.50;;
12145;SDS011;6136;47.032;15.398;2023-04-24T05:54:20;9.57;;;7.23;;
12145;SDS011;6136;47.032;15.398;2023-04-24T05:56:49;12.97;;;7.23;;
12145;SDS011;6136;47.032;15.398;2023-04-24T05:59:30;13.17;;;7.77;;
12145;SDS011;6136;47.032;15.398;2023-04-24T06:01:58;9.43;;;6.27;;
12145;SDS011;6136;47.032;15.398;2023-04-24T06:04:28;13.03;;;6.60;;
12145;SDS011;6136;47.032;15.398;2023-04-24T06:06:57;12.33;;;7.10;;
12145;SDS011;6136;47.032;15.398;2023-04-24T06:09:26;10.77;;;6.90;;
12145;SDS011;6136;47.032;15.398;2023-04-24T06:11:55;8.50;;;6.60;;
12145;SDS011;6136;47.032;15.398;2023-04-24T06:14:32;10.37;;;6.83;;
12145;SDS011;6136;47.032;15.398;2023-04-24T06:17:19;10.30;;;6.37;;
12145;SDS011;6136;47.032;15.398;2023-04-24T06:19:47;6.50;;;5.50;;
12145;SDS011;6136;47.032;15.398;2023-04-24T06:22:16;6.83;;;6.10;;
12145;SDS011;6136;47.032;15.398;2023-04-24T06:24:45;8.93;;;6.83;;
12145;SDS011;6136;47.032;15.398;2023-04-24T06:27:14;11.70;;;6.93;;
12145;SDS011;6136;47.032;15.398;2023-04-24T06:29:44;9.60;;;6.80;;
12145;SDS011;6136;47.032;15.398;2023-04-24T06:32:14;9.60;;;7.07;;
12145;SDS011;6136;47.032;15.398;2023-04-24T06:34:43;7.40;;;6.17;;
12145;SDS011;6136;47.032;15.398;2023-04-24T06:37:11;10.23;;;7.77;;
12145;SDS011;6136;47.032;15.398;2023-04-24T06:39:39;10.67;;;6.87;;
12145;SDS011;6136;47.032;15.398;2023-04-24T06:42:08;8.80;;;6.70;;
12145;SDS011;6136;47.032;15.398;2023-04-24T06:44:37;9.23;;;6.47;;
12145;SDS011;6136;47.032;15.398;2023-04-24T06:47:09;8.53;;;7.20;;
12145;SDS011;6136;47.032;15.398;2023-04-24T06:49:40;7.77;;;6.90;;
12145;SDS011;6136;47.032;15.398;2023-04-24T06:52:09;10.17;;;6.77;;
12145;SDS011;6136;47.032;15.398;2023-04-24T06:54:37;7.73;;;6.93;;
12145;SDS011;6136;47.032;15.398;2023-04-24T06:57:05;7.17;;;5.83;;
12145;SDS011;6136;47.032;15.398;2023-04-24T06:59:34;11.00;;;6.60;;
12145;SDS011;6136;47.032;15.398;2023-04-24T07:02:02;8.10;;;5.90;;
12145;SDS011;6136;47.032;15.398;2023-04-24T07:04:32;7.50;;;6.37;;
12145;SDS011;6136;47.032;15.398;2023-04-24T07:07:00;10.87;;;6.80;;
12145;SDS011;6136;47.032;15.398;2023-04-24T07:09:31;13.23;;;7.53;;
12145;SDS011;6136;47.032;15.398;2023-04-24T07:11:59;8.83;;;6.63;;
12145;SDS011;6136;47.032;15.398;2023-04-24T07:14:27;10.53;;;6.70;;
12145;SDS011;6136;47.032;15.398;2023-04-24T07:16:56;12.63;;;6.37;;
12145;SDS011;6136;47.032;15.398;2023-04-24T07:19:24;9.90;;;6.53;;
12145;SDS011;6136;47.032;15.398;2023-04-24T07:21:54;10.87;;;6.40;;
12145;SDS011;6136;47.032;15.398;2023-04-24T07:24:24;14.13;;;7.60;;
12145;SDS011;6136;47.032;15.398;2023-04-24T07:26:56;8.47;;;6.87;;
12145;SDS011;6136;47.032;15.398;2023-04-24T07:29:24;9.53;;;6.70;;
12145;SDS011;6136;47.032;15.398;2023-04-24T07:31:53;13.80;;;7.33;;
12145;SDS011;6136;47.032;15.398;2023-04-24T07:34:21;15.70;;;8.70;;
12145;SDS011;6136;47.032;15.398;2023-04-24T07:36:50;14.40;;;7.73;;
12145;SDS011;6136;47.032;15.398;2023-04-24T07:39:19;10.50;;;8.17;;
12145;SDS011;6136;47.032;15.398;2023-04-24T07:41:48;9.53;;;7.67;;
12145;SDS011;6136;47.032;15.398;2023-04-24T07:44:16;11.90;;;7.97;;
12145;SDS011;6136;47.032;15.398;2023-04-24T07:46:44;11.70;;;7.93;;
12145;SDS011;6136;47.032;15.398;2023-04-24T07:49:12;12.00;;;8.50;;
12145;SDS011;6136;47.032;15.398;2023-04-24T07:51:44;11.87;;;7.93;;
12145;SDS011;6136;47.032;15.398;2023-04-24T07:54:13;10.00;;;7.43;;
12145;SDS011;6136;47.032;15.398;2023-04-24T07:56:43;11.10;;;8.57;;
12145;SDS011;6136;47.032;15.398;2023-04-24T07:59:11;16.17;;;8.73;;
12145;SDS011;6136;47.032;15.398;2023-04-24T08:01:39;11.53;;;8.20;;
12145;SDS011;6136;47.032;15.398;2023-04-24T08:04:08;10.93;;;8.03;;
12145;SDS011;6136;47.032;15.398;2023-04-24T08:06:36;10.43;;;8.47;;
12145;SDS011;6136;47.032;15.398;2023-04-24T08:09:04;9.37;;;7.37;;
12145;SDS011;6136;47.032;15.398;2023-04-24T08:11:33;9.60;;;7.00;;
12145;SDS011;6136;47.032;15.398;2023-04-24T08:14:03;8.93;;;7.00;;
12145;SDS011;6136;47.032;15.398;2023-04-24T08:16:32;9.93;;;7.90;;
12145;SDS011;6136;47.032;15.398;2023-04-24T08:19:00;8.73;;;7.23;;
12145;SDS011;6136;47.032;15.398;2023-04-24T08:21:29;15.33;;;7.07;;
12145;SDS011;6136;47.032;15.398;2023-04-24T08:23:57;10.47;;;7.17;;
12145;SDS011;6136;47.032;15.398;2023-04-24T08:26:25;11.80;;;7.37;;
12145;SDS011;6136;47.032;15.398;2023-04-24T08:28:54;7.00;;;6.17;;
12145;SDS011;6136;47.032;15.398;2023-04-24T08:31:24;12.30;;;6.70;;
12145;SDS011;6136;47.032;15.398;2023-04-24T08:33:53;9.27;;;6.13;;
12145;SDS011;6136;47.032;15.398;2023-04-24T08:36:22;10.17;;;6.97;;
12145;SDS011;6136;47.032;15.398;2023-04-24T08:39:09;11.23;;;6.53;;
12145;SDS011;6136;47.032;15.398;2023-04-24T08:41:37;10.67;;;6.33;;
12145;SDS011;6136;47.032;15.398;2023-04-24T08:44:09;7.10;;;4.47;;
12145;SDS011;6136;47.032;15.398;2023-04-24T08:46:40;7.00;;;5.10;;
12145;SDS011;6136;47.032;15.398;2023-04-24T08:49:12;8.00;;;5.20;;
12145;SDS011;6136;47.032;15.398;2023-04-24T08:51:42;4.90;;;3.93;;
12145;SDS011;6136;47.032;15.398;2023-04-24T08:54:11;5.53;;;4.10;;
12145;SDS011;6136;47.032;15.398;2023-04-24T08:56:40;5.67;;;3.77;;
12145;SDS011;6136;47.032;15.398;2023-04-24T08:59:11;3.63;;;3.13;;
12145;SDS011;6136;47.032;15.398;2023-04-24T09:01:42;4.53;;;3.03;;
12145;SDS011;6136;47.032;15.398;2023-04-24T09:04:13;4.73;;;3.10;;
12145;SDS011;6136;47.032;15.398;2023-04-24T09:06:45;4.50;;;3.57;;
12145;SDS011;6136;47.032;15.398;2023-04-24T09:09:13;4.63;;;3.47;;
12145;SDS011;6136;47.032;15.398;2023-04-24T09:11:44;4.37;;;3.50;;
12145;SDS011;6136;47.032;15.398;2023-04-24T09:14:13;6.43;;;4.10;;
12145;SDS011;6136;47.032;15.398;2023-04-24T09:16:43;7.53;;;4.13;;
12145;SDS011;6136;47.032;15.398;2023-04-24T09:19:11;5.37;;;4.00;;
12145;SDS011;6136;47.032;15.398;2023-04-24T09:21:40;6.60;;;4.20;;
12145;SDS011;6136;47.032;15.398;2023-04-24T09:24:14;6.70;;;4.33;;
12145;SDS011;6136;47.032;15.398;2023-04-24T09:26:44;6.73;;;4.30;;
12145;SDS011;6136;47.032;15.398;2023-04-24T09:29:14;4.53;;;3.83;;
12145;SDS011;6136;47.032;15.398;2023-04-24T09:31:45;4.90;;;4.37;;
12145;SDS011;6136;47.032;15.398;2023-04-24T09:34:14;3.37;;;2.93;;
12145;SDS011;6136;47.032;15.398;2023-04-24T09:36:42;5.53;;;3.10;;
12145;SDS011;6136;47.032;15.398;2023-04-24T09:39:11;3.40;;;2.77;;
12145;SDS011;6136;47.032;15.398;2023-04-24T09:41:45;2.73;;;2.40;;
12145;SDS011;6136;47.032;15.398;2023-04-24T09:44:15;2.63;;;2.00;;
12145;SDS011;6136;47.032;15.398;2023-04-24T09:46:49;3.00;;;2.10;;
12145;SDS011;6136;47.032;15.398;2023-04-24T09:49:21;3.83;;;2.37;;
12145;SDS011;6136;47.032;15.398;2023-04-24T09:51:52;1.57;;;1.40;;
12145;SDS011;6136;47.032;15.398;2023-04-24T09:54:30;2.67;;;1.37;;
12145;SDS011;6136;47.032;15.398;2023-04-24T09:56:58;1.23;;;1.13;;
12145;SDS011;6136;47.032;15.398;2023-04-24T09:59:27;1.13;;;1.13;;
12145;SDS011;6136;47.032;15.398;2023-04-24T10:01:57;1.20;;;1.10;;
12145;SDS011;6136;47.032;15.398;2023-04-24T10:04:27;0.90;;;0.90;;
12145;SDS011;6136;47.032;15.398;2023-04-24T10:06:56;1.30;;;1.20;;
12145;SDS011;6136;47.032;15.398;2023-04-24T10:09:26;1.17;;;1.00;;
12145;SDS011;6136;47.032;15.398;2023-04-24T10:11:54;0.80;;;0.80;;
12145;SDS011;6136;47.032;15.398;2023-04-24T10:14:23;0.60;;;0.60;;
12145;SDS011;6136;47.032;15.398;2023-04-24T10:16:53;0.50;;;0.50;;
12145;SDS011;6136;47.032;15.398;2023-04-24T10:19:25;0.70;;;0.70;;
12145;SDS011;6136;47.032;15.398;2023-04-24T10:21:54;2.37;;;0.77;;
12145;SDS011;6136;47.032;15.398;2023-04-24T10:24:23;1.07;;;1.00;;
12145;SDS011;6136;47.032;15.398;2023-04-24T10:26:52;0.90;;;0.90;;
12145;SDS011;6136;47.032;15.398;2023-04-24T10:29:21;1.67;;;0.90;;
12145;SDS011;6136;47.032;15.398;2023-04-24T10:31:49;0.77;;;0.77;;
12145;SDS011;6136;47.032;15.398;2023-04-24T10:34:17;0.70;;;0.70;;
12145;SDS011;6136;47.032;15.398;2023-04-24T10:36:50;0.90;;;0.90;;
12145;SDS011;6136;47.032;15.398;2023-04-24T10:39:23;0.80;;;0.80;;
12145;SDS011;6136;47.032;15.398;2023-04-24T10:41:53;1.00;;;1.00;;
12145;SDS011;6136;47.032;15.398;2023-04-24T10:44:24;0.90;;;0.90;;
12145;SDS011;6136;47.032;15.398;2023-04-24T10:46:53;0.90;;;0.90;;
12145;SDS011;6136;47.032;15.398;2023-04-24T10:49:27;1.00;;;1.00;;
12145;SDS011;6136;47.032;15.398;2023-04-24T10:52:01;1.30;;;1.20;;
12145;SDS011;6136;47.032;15.398;2023-04-24T10:54:34;1.37;;;1.27;;
12145;SDS011;6136;47.032;15.398;2023-04-24T11:00:13;1.47;;;1.37;;
12145;SDS011;6136;47.032;15.398;2023-04-24T11:02:44;1.10;;;1.10;;
12145;SDS011;6136;47.032;15.398;2023-04-24T11:05:18;1.10;;;1.00;;
12145;SDS011;6136;47.032;15.398;2023-04-24T11:10:46;1.40;;;1.30;;
12145;SDS011;6136;47.032;15.398;2023-04-24T11:13:15;1.73;;;1.20;;
12145;SDS011;6136;47.032;15.398;2023-04-24T11:15:44;1.20;;;1.10;;
12145;SDS011;6136;47.032;15.398;2023-04-24T11:18:13;1.30;;;1.20;;
12145;SDS011;6136;47.032;15.398;2023-04-24T11:20:43;1.55;;;0.95;;
12145;SDS011;6136;47.032;15.398;2023-04-24T11:23:12;0.88;;;0.88;;
12145;SDS011;6136;47.032;15.398;2023-04-24T11:25:42;0.90;;;0.90;;
12145;SDS011;6136;47.032;15.398;2023-04-24T11:28:14;0.90;;;0.90;;
12145;SDS011;6136;47.032;15.398;2023-04-24T11:30:43;2.42;;;1.23;;
12145;SDS011;6136;47.032;15.398;2023-04-24T11:33:12;1.17;;;1.10;;
12145;SDS011;6136;47.032;15.398;2023-04-24T11:35:48;1.30;;;1.20;;
12145;SDS011;6136;47.032;15.398;2023-04-24T11:38:20;1.00;;;0.90;;
12145;SDS011;6136;47.032;15.398;2023-04-24T11:40:51;0.95;;;0.90;;
12145;SDS011;6136;47.032;15.398;2023-04-24T11:43:20;0.73;;;0.73;;
12145;SDS011;6136;47.032;15.398;2023-04-24T11:45:49;0.90;;;0.90;;
12145;SDS011;6136;47.032;15.398;2023-04-24T11:48:18;0.70;;;0.70;;
12145;SDS011;6136;47.032;15.398;2023-04-24T11:50:50;0.90;;;0.90;;
12145;SDS011;6136;47.032;15.398;2023-04-24T11:53:20;0.80;;;0.80;;
12145;SDS011;6136;47.032;15.398;2023-04-24T11:55:48;0.80;;;0.80;;
12145;SDS011;6136;47.032;15.398;2023-04-24T11:58:16;0.70;;;0.70;;
12145;SDS011;6136;47.032;15.398;2023-04-24T12:00:55;1.05;;;1.05;;
12145;SDS011;6136;47.032;15.398;2023-04-24T12:03:23;1.05;;;1.02;;
12145;SDS011;6136;47.032;15.398;2023-04-24T12:05:52;2.25;;;1.00;;
12145;SDS011;6136;47.032;15.398;2023-04-24T12:08:33;0.98;;;0.98;;
12145;SDS011;6136;47.032;15.398;2023-04-24T12:11:04;1.98;;;1.00;;
12145;SDS011;6136;47.032;15.398;2023-04-24T12:13:34;0.93;;;0.93;;
12145;SDS011;6136;47.032;15.398;2023-04-24T12:16:03;0.95;;;0.90;;
12145;SDS011;6136;47.032;15.398;2023-04-24T12:18:32;0.80;;;0.80;;
12145;SDS011;6136;47.032;15.398;2023-04-24T12:21:17;1.40;;;0.75;;
12145;SDS011;6136;47.032;15.398;2023-04-24T12:23:50;0.88;;;0.88;;
12145;SDS011;6136;47.032;15.398;2023-04-24T12:26:18;0.80;;;0.80;;
12145;SDS011;6136;47.032;15.398;2023-04-24T12:28:49;1.27;;;1.00;;
12145;SDS011;6136;47.032;15.398;2023-04-24T12:31:20;0.93;;;0.93;;
12145;SDS011;6136;47.032;15.398;2023-04-24T12:33:48;0.90;;;0.90;;
12145;SDS011;6136;47.032;15.398;2023-04-24T12:36:17;0.80;;;0.80;;
12145;SDS011;6136;47.032;15.398;2023-04-24T12:38:45;0.98;;;0.98;;
12145;SDS011;6136;47.032;15.398;2023-04-24T12:41:15;0.60;;;0.60;;
12145;SDS011;6136;47.032;15.398;2023-04-24T12:43:52;0.80;;;0.80;;
12145;SDS011;6136;47.032;15.398;2023-04-24T12:46:22;0.82;;;0.82;;
12145;SDS011;6136;47.032;15.398;2023-04-24T12:48:50;1.05;;;0.98;;
12145;SDS011;6136;47.032;15.398;2023-04-24T12:51:18;0.85;;;0.85;;
12145;SDS011;6136;47.032;15.398;2023-04-24T12:53:46;0.80;;;0.80;;
12145;SDS011;6136;47.032;15.398;2023-04-24T12:56:16;0.80;;;0.80;;
12145;SDS011;6136;47.032;15.398;2023-04-24T12:58:44;0.93;;;0.82;;
12145;SDS011;6136;47.032;15.398;2023-04-24T13:01:13;1.85;;;1.02;;
12145;SDS011;6136;47.032;15.398;2023-04-24T13:03:41;1.30;;;1.20;;
12145;SDS011;6136;47.032;15.398;2023-04-24T13:06:10;3.28;;;2.90;;
12145;SDS011;6136;47.032;15.398;2023-04-24T13:08:38;1.90;;;1.42;;
12145;SDS011;6136;47.032;15.398;2023-04-24T13:11:07;1.80;;;1.70;;
12145;SDS011;6136;47.032;15.398;2023-04-24T13:13:36;1.63;;;1.13;;
12145;SDS011;6136;47.032;15.398;2023-04-24T13:16:05;5.25;;;1.30;;
12145;SDS011;6136;47.032;15.398;2023-04-24T13:18:33;2.45;;;0.90;;
12145;SDS011;6136;47.032;15.398;2023-04-24T13:21:02;2.50;;;0.90;;
12145;SDS011;6136;47.032;15.398;2023-04-24T13:23:30;1.30;;;1.02;;
12145;SDS011;6136;47.032;15.398;2023-04-24T13:25:58;0.90;;;0.90;;
12145;SDS011;6136;47.032;15.398;2023-04-24T13:28:27;1.05;;;0.95;;
12145;SDS011;6136;47.032;15.398;2023-04-24T13:30:58;0.90;;;0.90;;
12145;SDS011;6136;47.032;15.398;2023-04-24T13:33:26;0.90;;;0.88;;
12145;SDS011;6136;47.032;15.398;2023-04-24T13:35:54;1.48;;;1.38;;
12145;SDS011;6136;47.032;15.398;2023-04-24T13:38:23;1.05;;;0.95;;
12145;SDS011;6136;47.032;15.398;2023-04-24T13:40:51;1.52;;;1.00;;
12145;SDS011;6136;47.032;15.398;2023-04-24T13:43:19;2.03;;;1.20;;
12145;SDS011;6136;47.032;15.398;2023-04-24T13:45:48;1.30;;;1.10;;
12145;SDS011;6136;47.032;15.398;2023-04-24T13:48:18;0.90;;;0.90;;
12145;SDS011;6136;47.032;15.398;2023-04-24T13:50:47;1.20;;;1.10;;
12145;SDS011;6136;47.032;15.398;2023-04-24T13:53:16;1.20;;;1.10;;
12145;SDS011;6136;47.032;15.398;2023-04-24T13:55:44;0.90;;;0.90;;
12145;SDS011;6136;47.032;15.398;2023-04-24T13:58:13;1.20;;;1.10;;
12145;SDS011;6136;47.032;15.398;2023-04-24T14:00:41;0.87;;;0.87;;
12145;SDS011;6136;47.032;15.398;2023-04-24T14:03:10;0.83;;;0.83;;
12145;SDS011;6136;47.032;15.398;2023-04-24T14:05:40;1.20;;;0.90;;
12145;SDS011;6136;47.032;15.398;2023-04-24T14:08:08;2.13;;;0.90;;
12145;SDS011;6136;47.032;15.398;2023-04-24T14:10:37;1.23;;;1.13;;
12145;SDS011;6136;47.032;15.398;2023-04-24T14:13:05;0.90;;;0.90;;
12145;SDS011;6136;47.032;15.398;2023-04-24T14:15:34;1.60;;;1.10;;
12145;SDS011;6136;47.032;15.398;2023-04-24T14:18:03;1.43;;;1.00;;
12145;SDS011;6136;47.032;15.398;2023-04-24T14:20:32;2.67;;;1.10;;
12145;SDS011;6136;47.032;15.398;2023-04-24T14:23:01;1.10;;;1.10;;
12145;SDS011;6136;47.032;15.398;2023-04-24T14:25:30;1.30;;;1.20;;
12145;SDS011;6136;47.032;15.398;2023-04-24T14:27:58;0.90;;;0.90;;
12145;SDS011;6136;47.032;15.398;2023-04-24T14:30:27;1.10;;;1.00;;
12145;SDS011;6136;47.032;15.398;2023-04-24T14:32:55;1.20;;;1.10;;
12145;SDS011;6136;47.032;15.398;2023-04-24T14:35:23;1.47;;;1.20;;
12145;SDS011;6136;47.032;15.398;2023-04-24T14:37:54;1.17;;;1.00;;
12145;SDS011;6136;47.032;15.398;2023-04-24T14:40:24;1.27;;;1.17;;
12145;SDS011;6136;47.032;15.398;2023-04-24T14:43:12;20.90;;;4.03;;
12145;SDS011;6136;47.032;15.398;2023-04-24T14:45:41;1.23;;;1.13;;
12145;SDS011;6136;47.032;15.398;2023-04-24T14:48:09;1.10;;;1.00;;
12145;SDS011;6136;47.032;15.398;2023-04-24T14:50:37;1.37;;;1.27;;
12145;SDS011;6136;47.032;15.398;2023-04-24T14:53:06;1.10;;;1.10;;
12145;SDS011;6136;47.032;15.398;2023-04-24T14:55:36;0.90;;;0.90;;
12145;SDS011;6136;47.032;15.398;2023-04-24T14:58:04;1.10;;;1.10;;
12145;SDS011;6136;47.032;15.398;2023-04-24T15:00:32;1.27;;;1.00;;
12145;SDS011;6136;47.032;15.398;2023-04-24T15:03:01;4.53;;;1.13;;
12145;SDS011;6136;47.032;15.398;2023-04-24T15:05:29;4.07;;;1.20;;
12145;SDS011;6136;47.032;15.398;2023-04-24T15:07:58;1.60;;;1.47;;